sensor_id;sensor_type;location;lat;lon;timestamp;P1;durP1;ratioP1;P2;durP2;ratioP2
33347;SDS011;19707;51.158;17.124;2022-08-19T00:02:38;11.85;;;9.58;;
33347;SDS011;19707;51.158;17.124;2022-08-19T00:05:43;11.10;;;9.48;;
33347;SDS011;19707;51.158;17.124;2022-08-19T00:08:48;10.98;;;9.05;;
33347;SDS011;19707;51.158;17.124;2022-08-19T00:11:52;11.80;;;10.63;;
33347;SDS011;19707;51.158;17.124;2022-08-19T00:17:57;13.58;;;11.65;;
33347;SDS011;19707;51.158;17.124;2022-08-19T00:21:01;13.40;;;11.47;;
33347;SDS011;19707;51.158;17.124;2022-08-19T00:24:03;11.50;;;9.70;;
33347;SDS011;19707;51.158;17.124;2022-08-19T00:27:14;11.68;;;8.48;;
33347;SDS011;19707;51.158;17.124;2022-08-19T00:30:17;13.00;;;9.10;;
33347;SDS011;19707;51.158;17.124;2022-08-19T00:33:22;10.20;;;8.60;;
33347;SDS011;19707;51.158;17.124;2022-08-19T00:36:25;10.30;;;8.40;;
33347;SDS011;19707;51.158;17.124;2022-08-19T00:39:27;10.10;;;8.98;;
33347;SDS011;19707;51.158;17.124;2022-08-19T00:42:30;10.08;;;9.08;;
33347;SDS011;19707;51.158;17.124;2022-08-19T00:45:33;12.43;;;9.68;;
33347;SDS011;19707;51.158;17.124;2022-08-19T00:48:38;13.58;;;10.30;;
33347;SDS011;19707;51.158;17.124;2022-08-19T00:51:45;10.93;;;9.83;;
33347;SDS011;19707;51.158;17.124;2022-08-19T00:54:54;12.18;;;9.75;;
33347;SDS011;19707;51.158;17.124;2022-08-19T00:58:02;11.15;;;10.00;;
33347;SDS011;19707;51.158;17.124;2022-08-19T01:01:13;13.58;;;9.45;;
33347;SDS011;19707;51.158;17.124;2022-08-19T01:07:23;12.18;;;9.63;;
33347;SDS011;19707;51.158;17.124;2022-08-19T01:10:31;15.93;;;10.43;;
33347;SDS011;19707;51.158;17.124;2022-08-19T01:13:46;12.58;;;10.35;;
33347;SDS011;19707;51.158;17.124;2022-08-19T01:16:56;12.07;;;10.88;;
33347;SDS011;19707;51.158;17.124;2022-08-19T01:20:07;12.43;;;10.28;;
33347;SDS011;19707;51.158;17.124;2022-08-19T01:23:17;14.07;;;9.93;;
33347;SDS011;19707;51.158;17.124;2022-08-19T01:26:29;14.13;;;10.65;;
33347;SDS011;19707;51.158;17.124;2022-08-19T01:29:37;10.28;;;9.28;;
33347;SDS011;19707;51.158;17.124;2022-08-19T01:32:43;11.28;;;10.13;;
33347;SDS011;19707;51.158;17.124;2022-08-19T01:38:54;10.50;;;9.50;;
33347;SDS011;19707;51.158;17.124;2022-08-19T01:42:05;14.78;;;11.10;;
33347;SDS011;19707;51.158;17.124;2022-08-19T01:45:12;14.15;;;10.25;;
33347;SDS011;19707;51.158;17.124;2022-08-19T01:48:16;13.18;;;10.28;;
33347;SDS011;19707;51.158;17.124;2022-08-19T01:51:28;11.80;;;9.63;;
33347;SDS011;19707;51.158;17.124;2022-08-19T01:54:32;13.07;;;9.67;;
33347;SDS011;19707;51.158;17.124;2022-08-19T01:57:36;13.53;;;10.30;;
33347;SDS011;19707;51.158;17.124;2022-08-19T02:00:43;11.45;;;10.23;;
33347;SDS011;19707;51.158;17.124;2022-08-19T02:03:48;10.20;;;9.07;;
33347;SDS011;19707;51.158;17.124;2022-08-19T02:07:05;10.68;;;8.90;;
33347;SDS011;19707;51.158;17.124;2022-08-19T02:10:10;10.40;;;9.35;;
33347;SDS011;19707;51.158;17.124;2022-08-19T02:13:24;11.95;;;10.40;;
33347;SDS011;19707;51.158;17.124;2022-08-19T02:16:33;14.05;;;9.93;;
33347;SDS011;19707;51.158;17.124;2022-08-19T02:19:40;13.45;;;10.45;;
33347;SDS011;19707;51.158;17.124;2022-08-19T02:22:46;12.75;;;10.28;;
33347;SDS011;19707;51.158;17.124;2022-08-19T02:25:54;12.20;;;9.73;;
33347;SDS011;19707;51.158;17.124;2022-08-19T02:29:00;11.05;;;9.88;;
33347;SDS011;19707;51.158;17.124;2022-08-19T02:32:05;13.28;;;10.35;;
33347;SDS011;19707;51.158;17.124;2022-08-19T02:35:10;13.85;;;9.70;;
33347;SDS011;19707;51.158;17.124;2022-08-19T02:38:17;13.58;;;10.45;;
33347;SDS011;19707;51.158;17.124;2022-08-19T02:41:33;13.25;;;9.70;;
33347;SDS011;19707;51.158;17.124;2022-08-19T02:44:40;12.00;;;9.78;;
33347;SDS011;19707;51.158;17.124;2022-08-19T02:47:46;15.83;;;10.80;;
33347;SDS011;19707;51.158;17.124;2022-08-19T02:50:53;11.53;;;10.32;;
33347;SDS011;19707;51.158;17.124;2022-08-19T02:54:04;11.85;;;10.45;;
33347;SDS011;19707;51.158;17.124;2022-08-19T02:57:12;11.50;;;10.35;;
33347;SDS011;19707;51.158;17.124;2022-08-19T03:00:16;16.02;;;10.13;;
33347;SDS011;19707;51.158;17.124;2022-08-19T03:03:22;12.85;;;10.43;;
33347;SDS011;19707;51.158;17.124;2022-08-19T03:06:27;11.73;;;10.28;;
33347;SDS011;19707;51.158;17.124;2022-08-19T03:09:32;12.20;;;10.98;;
33347;SDS011;19707;51.158;17.124;2022-08-19T03:12:44;11.83;;;10.70;;
33347;SDS011;19707;51.158;17.124;2022-08-19T03:15:49;12.93;;;10.70;;
33347;SDS011;19707;51.158;17.124;2022-08-19T03:19:02;13.50;;;10.48;;
33347;SDS011;19707;51.158;17.124;2022-08-19T03:22:11;11.90;;;10.78;;
33347;SDS011;19707;51.158;17.124;2022-08-19T03:25:18;12.43;;;11.10;;
33347;SDS011;19707;51.158;17.124;2022-08-19T03:28:28;13.78;;;10.38;;
33347;SDS011;19707;51.158;17.124;2022-08-19T03:31:37;12.88;;;11.45;;
33347;SDS011;19707;51.158;17.124;2022-08-19T03:34:45;14.13;;;12.10;;
33347;SDS011;19707;51.158;17.124;2022-08-19T03:37:54;16.73;;;12.70;;
33347;SDS011;19707;51.158;17.124;2022-08-19T03:41:06;14.43;;;12.60;;
33347;SDS011;19707;51.158;17.124;2022-08-19T03:44:09;18.70;;;12.30;;
33347;SDS011;19707;51.158;17.124;2022-08-19T03:47:21;13.78;;;12.00;;
33347;SDS011;19707;51.158;17.124;2022-08-19T03:50:32;13.95;;;11.28;;
33347;SDS011;19707;51.158;17.124;2022-08-19T03:53:45;15.55;;;12.78;;
33347;SDS011;19707;51.158;17.124;2022-08-19T03:56:51;14.28;;;12.78;;
33347;SDS011;19707;51.158;17.124;2022-08-19T03:59:59;13.95;;;12.00;;
33347;SDS011;19707;51.158;17.124;2022-08-19T04:03:10;20.45;;;13.55;;
33347;SDS011;19707;51.158;17.124;2022-08-19T04:06:18;14.35;;;11.80;;
33347;SDS011;19707;51.158;17.124;2022-08-19T04:09:29;14.10;;;11.43;;
33347;SDS011;19707;51.158;17.124;2022-08-19T04:12:35;16.12;;;12.93;;
33347;SDS011;19707;51.158;17.124;2022-08-19T04:15:39;14.25;;;12.20;;
33347;SDS011;19707;51.158;17.124;2022-08-19T04:18:43;13.53;;;11.97;;
33347;SDS011;19707;51.158;17.124;2022-08-19T04:21:54;15.18;;;13.15;;
33347;SDS011;19707;51.158;17.124;2022-08-19T04:24:59;15.70;;;13.65;;
33347;SDS011;19707;51.158;17.124;2022-08-19T04:28:05;16.77;;;14.85;;
33347;SDS011;19707;51.158;17.124;2022-08-19T04:31:18;18.77;;;14.55;;
33347;SDS011;19707;51.158;17.124;2022-08-19T04:34:24;17.37;;;14.07;;
33347;SDS011;19707;51.158;17.124;2022-08-19T04:37:33;16.25;;;13.28;;
33347;SDS011;19707;51.158;17.124;2022-08-19T04:40:42;14.70;;;12.88;;
33347;SDS011;19707;51.158;17.124;2022-08-19T04:44:08;17.65;;;13.60;;
33347;SDS011;19707;51.158;17.124;2022-08-19T04:47:20;14.87;;;13.30;;
33347;SDS011;19707;51.158;17.124;2022-08-19T04:50:29;16.62;;;12.98;;
33347;SDS011;19707;51.158;17.124;2022-08-19T04:53:38;16.52;;;14.70;;
33347;SDS011;19707;51.158;17.124;2022-08-19T04:56:44;19.48;;;14.75;;
33347;SDS011;19707;51.158;17.124;2022-08-19T04:59:53;19.70;;;15.17;;
33347;SDS011;19707;51.158;17.124;2022-08-19T05:03:03;20.97;;;14.33;;
33347;SDS011;19707;51.158;17.124;2022-08-19T05:06:11;15.10;;;13.48;;
33347;SDS011;19707;51.158;17.124;2022-08-19T05:09:22;17.67;;;13.70;;
33347;SDS011;19707;51.158;17.124;2022-08-19T05:12:32;16.62;;;13.60;;
33347;SDS011;19707;51.158;17.124;2022-08-19T05:18:44;18.65;;;14.73;;
33347;SDS011;19707;51.158;17.124;2022-08-19T05:22:09;16.15;;;13.75;;
33347;SDS011;19707;51.158;17.124;2022-08-19T05:25:39;20.52;;;13.95;;
33347;SDS011;19707;51.158;17.124;2022-08-19T05:28:45;17.37;;;14.55;;
33347;SDS011;19707;51.158;17.124;2022-08-19T05:34:54;20.02;;;15.60;;
33347;SDS011;19707;51.158;17.124;2022-08-19T05:37:56;19.75;;;16.23;;
33347;SDS011;19707;51.158;17.124;2022-08-19T05:40:59;18.40;;;15.08;;
33347;SDS011;19707;51.158;17.124;2022-08-19T05:44:09;19.42;;;15.18;;
33347;SDS011;19707;51.158;17.124;2022-08-19T05:47:15;21.55;;;17.77;;
33347;SDS011;19707;51.158;17.124;2022-08-19T05:50:21;20.37;;;15.50;;
33347;SDS011;19707;51.158;17.124;2022-08-19T05:53:28;16.67;;;14.70;;
33347;SDS011;19707;51.158;17.124;2022-08-19T05:56:34;19.10;;;14.78;;
33347;SDS011;19707;51.158;17.124;2022-08-19T05:59:44;17.05;;;15.23;;
33347;SDS011;19707;51.158;17.124;2022-08-19T06:02:53;20.30;;;15.10;;
33347;SDS011;19707;51.158;17.124;2022-08-19T06:06:01;19.25;;;15.15;;
33347;SDS011;19707;51.158;17.124;2022-08-19T06:09:07;18.57;;;15.38;;
33347;SDS011;19707;51.158;17.124;2022-08-19T06:12:10;19.75;;;16.15;;
33347;SDS011;19707;51.158;17.124;2022-08-19T06:15:13;26.60;;;15.35;;
33347;SDS011;19707;51.158;17.124;2022-08-19T06:18:20;15.80;;;14.28;;
33347;SDS011;19707;51.158;17.124;2022-08-19T06:21:24;17.77;;;14.78;;
33347;SDS011;19707;51.158;17.124;2022-08-19T06:24:36;16.02;;;13.62;;
33347;SDS011;19707;51.158;17.124;2022-08-19T06:27:42;16.05;;;14.40;;
33347;SDS011;19707;51.158;17.124;2022-08-19T06:30:45;19.05;;;15.85;;
33347;SDS011;19707;51.158;17.124;2022-08-19T06:33:47;17.92;;;14.03;;
33347;SDS011;19707;51.158;17.124;2022-08-19T06:36:59;16.70;;;13.35;;
33347;SDS011;19707;51.158;17.124;2022-08-19T06:43:19;17.52;;;14.10;;
33347;SDS011;19707;51.158;17.124;2022-08-19T06:46:28;15.95;;;13.78;;
33347;SDS011;19707;51.158;17.124;2022-08-19T06:49:31;21.82;;;15.32;;
33347;SDS011;19707;51.158;17.124;2022-08-19T06:52:34;22.70;;;14.38;;
33347;SDS011;19707;51.158;17.124;2022-08-19T06:55:37;22.10;;;14.50;;
33347;SDS011;19707;51.158;17.124;2022-08-19T06:58:41;18.57;;;13.48;;
33347;SDS011;19707;51.158;17.124;2022-08-19T07:01:45;17.60;;;13.28;;
33347;SDS011;19707;51.158;17.124;2022-08-19T07:04:50;18.55;;;12.65;;
33347;SDS011;19707;51.158;17.124;2022-08-19T07:07:55;16.05;;;13.05;;
33347;SDS011;19707;51.158;17.124;2022-08-19T07:10:58;18.02;;;13.93;;
33347;SDS011;19707;51.158;17.124;2022-08-19T07:14:00;19.05;;;13.20;;
33347;SDS011;19707;51.158;17.124;2022-08-19T07:17:06;19.85;;;13.85;;
33347;SDS011;19707;51.158;17.124;2022-08-19T07:20:12;17.50;;;12.00;;
33347;SDS011;19707;51.158;17.124;2022-08-19T07:23:15;18.05;;;11.35;;
33347;SDS011;19707;51.158;17.124;2022-08-19T07:26:19;20.25;;;12.68;;
33347;SDS011;19707;51.158;17.124;2022-08-19T07:29:27;17.35;;;13.28;;
33347;SDS011;19707;51.158;17.124;2022-08-19T07:32:39;13.03;;;10.70;;
33347;SDS011;19707;51.158;17.124;2022-08-19T07:35:44;16.10;;;11.57;;
33347;SDS011;19707;51.158;17.124;2022-08-19T07:38:49;15.10;;;11.18;;
33347;SDS011;19707;51.158;17.124;2022-08-19T07:41:56;17.35;;;9.68;;
33347;SDS011;19707;51.158;17.124;2022-08-19T07:45:01;16.65;;;10.78;;
33347;SDS011;19707;51.158;17.124;2022-08-19T07:48:03;12.07;;;9.53;;
33347;SDS011;19707;51.158;17.124;2022-08-19T07:51:06;11.83;;;9.78;;
33347;SDS011;19707;51.158;17.124;2022-08-19T07:54:12;13.05;;;9.43;;
33347;SDS011;19707;51.158;17.124;2022-08-19T07:57:22;13.50;;;10.88;;
33347;SDS011;19707;51.158;17.124;2022-08-19T08:00:29;12.03;;;9.00;;
33347;SDS011;19707;51.158;17.124;2022-08-19T08:03:32;15.40;;;10.43;;
33347;SDS011;19707;51.158;17.124;2022-08-19T08:06:56;13.22;;;9.33;;
33347;SDS011;19707;51.158;17.124;2022-08-19T08:10:24;13.32;;;10.58;;
33347;SDS011;19707;51.158;17.124;2022-08-19T08:13:28;18.32;;;11.18;;
33347;SDS011;19707;51.158;17.124;2022-08-19T08:16:36;16.93;;;10.13;;
33347;SDS011;19707;51.158;17.124;2022-08-19T08:19:39;11.88;;;10.28;;
33347;SDS011;19707;51.158;17.124;2022-08-19T08:22:44;14.65;;;9.75;;
33347;SDS011;19707;51.158;17.124;2022-08-19T08:26:05;12.35;;;10.72;;
33347;SDS011;19707;51.158;17.124;2022-08-19T08:29:14;17.05;;;11.65;;
33347;SDS011;19707;51.158;17.124;2022-08-19T08:32:13;13.58;;;7.50;;
33347;SDS011;19707;51.158;17.124;2022-08-19T08:35:18;18.02;;;10.25;;
33347;SDS011;19707;51.158;17.124;2022-08-19T08:38:22;10.10;;;8.90;;
33347;SDS011;19707;51.158;17.124;2022-08-19T08:41:30;12.45;;;10.10;;
33347;SDS011;19707;51.158;17.124;2022-08-19T08:45:08;14.83;;;8.05;;
33347;SDS011;19707;51.158;17.124;2022-08-19T08:48:27;6.28;;;5.53;;
33347;SDS011;19707;51.158;17.124;2022-08-19T08:51:39;11.05;;;8.00;;
33347;SDS011;19707;51.158;17.124;2022-08-19T08:54:50;13.35;;;9.48;;
33347;SDS011;19707;51.158;17.124;2022-08-19T08:58:03;14.05;;;9.00;;
33347;SDS011;19707;51.158;17.124;2022-08-19T09:01:13;4.95;;;4.00;;
33347;SDS011;19707;51.158;17.124;2022-08-19T09:04:21;4.15;;;3.50;;
33347;SDS011;19707;51.158;17.124;2022-08-19T09:07:45;13.35;;;9.05;;
33347;SDS011;19707;51.158;17.124;2022-08-19T09:11:10;2.98;;;2.70;;
33347;SDS011;19707;51.158;17.124;2022-08-19T09:14:36;5.80;;;3.85;;
33347;SDS011;19707;51.158;17.124;2022-08-19T09:17:44;6.95;;;4.58;;
33347;SDS011;19707;51.158;17.124;2022-08-19T09:20:50;8.55;;;5.40;;
33347;SDS011;19707;51.158;17.124;2022-08-19T09:23:59;13.48;;;9.60;;
33347;SDS011;19707;51.158;17.124;2022-08-19T09:27:11;7.05;;;5.42;;
33347;SDS011;19707;51.158;17.124;2022-08-19T09:30:27;11.83;;;7.83;;
33347;SDS011;19707;51.158;17.124;2022-08-19T09:33:34;13.90;;;9.63;;
33347;SDS011;19707;51.158;17.124;2022-08-19T09:36:40;14.13;;;9.15;;
33347;SDS011;19707;51.158;17.124;2022-08-19T09:39:47;12.05;;;6.47;;
33347;SDS011;19707;51.158;17.124;2022-08-19T09:46:00;9.23;;;7.85;;
33347;SDS011;19707;51.158;17.124;2022-08-19T09:49:05;11.60;;;9.05;;
33347;SDS011;19707;51.158;17.124;2022-08-19T09:52:14;12.93;;;9.00;;
33347;SDS011;19707;51.158;17.124;2022-08-19T09:55:19;12.93;;;9.20;;
33347;SDS011;19707;51.158;17.124;2022-08-19T09:58:22;11.57;;;9.60;;
33347;SDS011;19707;51.158;17.124;2022-08-19T10:04:36;10.55;;;5.62;;
33347;SDS011;19707;51.158;17.124;2022-08-19T10:07:59;9.25;;;5.80;;
33347;SDS011;19707;51.158;17.124;2022-08-19T10:14:08;5.97;;;5.35;;
33347;SDS011;19707;51.158;17.124;2022-08-19T10:17:13;8.18;;;6.28;;
33347;SDS011;19707;51.158;17.124;2022-08-19T10:20:18;10.98;;;6.60;;
33347;SDS011;19707;51.158;17.124;2022-08-19T10:23:27;10.68;;;7.53;;
33347;SDS011;19707;51.158;17.124;2022-08-19T10:26:38;9.43;;;4.33;;
33347;SDS011;19707;51.158;17.124;2022-08-19T10:29:40;12.15;;;7.65;;
33347;SDS011;19707;51.158;17.124;2022-08-19T10:32:44;14.90;;;7.62;;
33347;SDS011;19707;51.158;17.124;2022-08-19T10:35:48;4.10;;;3.15;;
33347;SDS011;19707;51.158;17.124;2022-08-19T10:39:08;6.28;;;5.20;;
33347;SDS011;19707;51.158;17.124;2022-08-19T10:42:14;13.43;;;7.30;;
33347;SDS011;19707;51.158;17.124;2022-08-19T10:45:22;3.83;;;3.25;;
33347;SDS011;19707;51.158;17.124;2022-08-19T10:48:27;12.30;;;6.60;;
33347;SDS011;19707;51.158;17.124;2022-08-19T10:51:30;3.02;;;2.60;;
33347;SDS011;19707;51.158;17.124;2022-08-19T10:54:52;9.18;;;2.72;;
33347;SDS011;19707;51.158;17.124;2022-08-19T10:58:16;6.92;;;4.67;;
33347;SDS011;19707;51.158;17.124;2022-08-19T11:01:21;12.40;;;6.22;;
33347;SDS011;19707;51.158;17.124;2022-08-19T11:04:23;12.28;;;6.62;;
33347;SDS011;19707;51.158;17.124;2022-08-19T11:07:34;8.03;;;6.42;;
33347;SDS011;19707;51.158;17.124;2022-08-19T11:10:41;7.08;;;6.10;;
33347;SDS011;19707;51.158;17.124;2022-08-19T11:13:43;6.92;;;5.78;;
33347;SDS011;19707;51.158;17.124;2022-08-19T11:16:50;5.75;;;3.12;;
33347;SDS011;19707;51.158;17.124;2022-08-19T11:19:52;5.92;;;5.12;;
33347;SDS011;19707;51.158;17.124;2022-08-19T11:22:55;5.90;;;4.28;;
33347;SDS011;19707;51.158;17.124;2022-08-19T11:26:01;8.00;;;4.42;;
33347;SDS011;19707;51.158;17.124;2022-08-19T11:29:11;4.22;;;3.83;;
33347;SDS011;19707;51.158;17.124;2022-08-19T11:32:19;6.33;;;2.75;;
33347;SDS011;19707;51.158;17.124;2022-08-19T11:35:22;9.55;;;4.33;;
33347;SDS011;19707;51.158;17.124;2022-08-19T11:38:30;6.03;;;3.70;;
33347;SDS011;19707;51.158;17.124;2022-08-19T11:41:33;10.30;;;4.80;;
33347;SDS011;19707;51.158;17.124;2022-08-19T11:44:38;9.25;;;4.22;;
33347;SDS011;19707;51.158;17.124;2022-08-19T11:47:44;6.50;;;5.62;;
33347;SDS011;19707;51.158;17.124;2022-08-19T11:50:48;6.22;;;4.08;;
33347;SDS011;19707;51.158;17.124;2022-08-19T11:54:00;7.15;;;3.83;;
33347;SDS011;19707;51.158;17.124;2022-08-19T11:57:06;3.72;;;3.08;;
33347;SDS011;19707;51.158;17.124;2022-08-19T12:00:09;4.22;;;3.05;;
33347;SDS011;19707;51.158;17.124;2022-08-19T12:03:18;7.03;;;4.08;;
33347;SDS011;19707;51.158;17.124;2022-08-19T12:06:32;6.22;;;3.95;;
33347;SDS011;19707;51.158;17.124;2022-08-19T12:09:35;6.35;;;4.67;;
33347;SDS011;19707;51.158;17.124;2022-08-19T12:12:48;6.58;;;3.95;;
33347;SDS011;19707;51.158;17.124;2022-08-19T12:15:54;5.47;;;3.45;;
33347;SDS011;19707;51.158;17.124;2022-08-19T12:18:59;3.60;;;3.20;;
33347;SDS011;19707;51.158;17.124;2022-08-19T12:22:05;8.30;;;4.20;;
33347;SDS011;19707;51.158;17.124;2022-08-19T12:25:14;4.83;;;3.58;;
33347;SDS011;19707;51.158;17.124;2022-08-19T12:28:19;3.15;;;2.80;;
33347;SDS011;19707;51.158;17.124;2022-08-19T12:31:24;4.87;;;3.58;;
33347;SDS011;19707;51.158;17.124;2022-08-19T12:34:31;3.40;;;3.05;;
33347;SDS011;19707;51.158;17.124;2022-08-19T12:37:35;3.37;;;2.92;;
33347;SDS011;19707;51.158;17.124;2022-08-19T12:40:46;4.95;;;3.40;;
33347;SDS011;19707;51.158;17.124;2022-08-19T12:43:52;5.80;;;3.83;;
33347;SDS011;19707;51.158;17.124;2022-08-19T12:47:00;7.15;;;4.92;;
33347;SDS011;19707;51.158;17.124;2022-08-19T12:50:06;3.35;;;3.05;;
33347;SDS011;19707;51.158;17.124;2022-08-19T12:53:12;3.90;;;3.52;;
33347;SDS011;19707;51.158;17.124;2022-08-19T12:56:23;5.50;;;3.30;;
33347;SDS011;19707;51.158;17.124;2022-08-19T12:59:38;4.37;;;3.00;;
33347;SDS011;19707;51.158;17.124;2022-08-19T13:02:43;4.12;;;3.17;;
33347;SDS011;19707;51.158;17.124;2022-08-19T13:05:52;4.22;;;3.50;;
33347;SDS011;19707;51.158;17.124;2022-08-19T13:08:58;7.47;;;3.62;;
33347;SDS011;19707;51.158;17.124;2022-08-19T13:12:05;6.53;;;4.15;;
33347;SDS011;19707;51.158;17.124;2022-08-19T13:15:15;7.00;;;4.50;;
33347;SDS011;19707;51.158;17.124;2022-08-19T13:18:22;5.55;;;4.30;;
33347;SDS011;19707;51.158;17.124;2022-08-19T13:21:27;6.08;;;4.20;;
33347;SDS011;19707;51.158;17.124;2022-08-19T13:24:38;3.55;;;3.25;;
33347;SDS011;19707;51.158;17.124;2022-08-19T13:27:47;4.15;;;3.60;;
33347;SDS011;19707;51.158;17.124;2022-08-19T13:30:52;6.58;;;3.98;;
33347;SDS011;19707;51.158;17.124;2022-08-19T13:34:19;6.50;;;4.37;;
33347;SDS011;19707;51.158;17.124;2022-08-19T13:37:34;3.72;;;3.17;;
33347;SDS011;19707;51.158;17.124;2022-08-19T13:40:45;5.80;;;3.58;;
33347;SDS011;19707;51.158;17.124;2022-08-19T13:43:52;4.17;;;3.52;;
33347;SDS011;19707;51.158;17.124;2022-08-19T13:47:05;7.50;;;5.25;;
33347;SDS011;19707;51.158;17.124;2022-08-19T13:50:11;9.70;;;3.95;;
33347;SDS011;19707;51.158;17.124;2022-08-19T13:53:24;6.17;;;3.80;;
33347;SDS011;19707;51.158;17.124;2022-08-19T13:56:27;5.12;;;4.00;;
33347;SDS011;19707;51.158;17.124;2022-08-19T13:59:36;7.65;;;4.10;;
33347;SDS011;19707;51.158;17.124;2022-08-19T14:02:45;4.97;;;3.02;;
33347;SDS011;19707;51.158;17.124;2022-08-19T14:05:50;7.05;;;3.83;;
33347;SDS011;19707;51.158;17.124;2022-08-19T14:08:54;4.60;;;3.60;;
33347;SDS011;19707;51.158;17.124;2022-08-19T14:12:02;13.13;;;4.83;;
33347;SDS011;19707;51.158;17.124;2022-08-19T14:15:07;4.03;;;3.40;;
33347;SDS011;19707;51.158;17.124;2022-08-19T14:18:16;6.20;;;3.72;;
33347;SDS011;19707;51.158;17.124;2022-08-19T14:21:24;5.20;;;3.40;;
33347;SDS011;19707;51.158;17.124;2022-08-19T14:24:33;6.40;;;3.98;;
33347;SDS011;19707;51.158;17.124;2022-08-19T14:27:38;4.62;;;3.77;;
33347;SDS011;19707;51.158;17.124;2022-08-19T14:30:43;3.77;;;3.47;;
33347;SDS011;19707;51.158;17.124;2022-08-19T14:33:50;4.85;;;3.40;;
33347;SDS011;19707;51.158;17.124;2022-08-19T14:36:59;4.50;;;3.98;;
33347;SDS011;19707;51.158;17.124;2022-08-19T14:40:05;4.10;;;3.55;;
33347;SDS011;19707;51.158;17.124;2022-08-19T14:43:17;5.25;;;3.47;;
33347;SDS011;19707;51.158;17.124;2022-08-19T14:46:22;4.83;;;3.80;;
33347;SDS011;19707;51.158;17.124;2022-08-19T14:49:30;8.43;;;3.90;;
33347;SDS011;19707;51.158;17.124;2022-08-19T14:52:39;5.30;;;3.80;;
33347;SDS011;19707;51.158;17.124;2022-08-19T14:55:47;3.85;;;3.33;;
33347;SDS011;19707;51.158;17.124;2022-08-19T14:58:54;5.65;;;3.83;;
33347;SDS011;19707;51.158;17.124;2022-08-19T15:02:02;7.05;;;4.40;;
33347;SDS011;19707;51.158;17.124;2022-08-19T15:05:07;5.67;;;4.17;;
33347;SDS011;19707;51.158;17.124;2022-08-19T15:08:16;5.65;;;3.60;;
33347;SDS011;19707;51.158;17.124;2022-08-19T15:11:21;5.58;;;3.90;;
33347;SDS011;19707;51.158;17.124;2022-08-19T15:14:35;5.65;;;4.60;;
33347;SDS011;19707;51.158;17.124;2022-08-19T15:17:42;5.00;;;4.22;;
33347;SDS011;19707;51.158;17.124;2022-08-19T15:20:54;5.70;;;4.20;;
33347;SDS011;19707;51.158;17.124;2022-08-19T15:23:58;8.58;;;5.12;;
33347;SDS011;19707;51.158;17.124;2022-08-19T15:27:07;7.37;;;5.17;;
33347;SDS011;19707;51.158;17.124;2022-08-19T15:30:17;10.63;;;6.60;;
33347;SDS011;19707;51.158;17.124;2022-08-19T15:33:19;8.13;;;5.25;;
33347;SDS011;19707;51.158;17.124;2022-08-19T15:36:26;10.38;;;6.03;;
33347;SDS011;19707;51.158;17.124;2022-08-19T15:39:31;9.40;;;6.25;;
33347;SDS011;19707;51.158;17.124;2022-08-19T15:42:37;11.18;;;8.93;;
33347;SDS011;19707;51.158;17.124;2022-08-19T15:45:44;11.85;;;8.60;;
33347;SDS011;19707;51.158;17.124;2022-08-19T15:48:50;14.65;;;6.85;;
33347;SDS011;19707;51.158;17.124;2022-08-19T15:52:04;6.78;;;6.17;;
33347;SDS011;19707;51.158;17.124;2022-08-19T15:55:12;15.28;;;10.38;;
33347;SDS011;19707;51.158;17.124;2022-08-19T15:58:18;8.60;;;7.45;;
33347;SDS011;19707;51.158;17.124;2022-08-19T16:01:46;10.10;;;7.37;;
33347;SDS011;19707;51.158;17.124;2022-08-19T16:05:18;15.55;;;11.60;;
33347;SDS011;19707;51.158;17.124;2022-08-19T16:08:41;9.08;;;8.18;;
33347;SDS011;19707;51.158;17.124;2022-08-19T16:11:46;12.95;;;10.93;;
33347;SDS011;19707;51.158;17.124;2022-08-19T16:14:49;7.15;;;6.08;;
33347;SDS011;19707;51.158;17.124;2022-08-19T16:17:56;9.75;;;8.63;;
33347;SDS011;19707;51.158;17.124;2022-08-19T16:21:06;12.73;;;11.40;;
33347;SDS011;19707;51.158;17.124;2022-08-19T16:24:10;15.30;;;11.70;;
33347;SDS011;19707;51.158;17.124;2022-08-19T16:27:16;7.90;;;6.75;;
33347;SDS011;19707;51.158;17.124;2022-08-19T16:30:24;16.42;;;14.65;;
33347;SDS011;19707;51.158;17.124;2022-08-19T16:33:29;12.18;;;10.88;;
33347;SDS011;19707;51.158;17.124;2022-08-19T16:36:33;11.12;;;9.90;;
33347;SDS011;19707;51.158;17.124;2022-08-19T16:39:39;17.05;;;14.13;;
33347;SDS011;19707;51.158;17.124;2022-08-19T16:42:48;12.43;;;11.12;;
33347;SDS011;19707;51.158;17.124;2022-08-19T16:45:55;18.60;;;16.80;;
33347;SDS011;19707;51.158;17.124;2022-08-19T16:49:00;17.80;;;14.95;;
33347;SDS011;19707;51.158;17.124;2022-08-19T16:52:05;17.45;;;15.35;;
33347;SDS011;19707;51.158;17.124;2022-08-19T16:55:11;10.05;;;9.00;;
33347;SDS011;19707;51.158;17.124;2022-08-19T16:58:15;11.70;;;9.78;;
33347;SDS011;19707;51.158;17.124;2022-08-19T17:01:23;12.40;;;11.25;;
33347;SDS011;19707;51.158;17.124;2022-08-19T17:04:29;22.17;;;16.55;;
33347;SDS011;19707;51.158;17.124;2022-08-19T17:07:35;12.15;;;9.18;;
33347;SDS011;19707;51.158;17.124;2022-08-19T17:10:39;13.38;;;12.13;;
33347;SDS011;19707;51.158;17.124;2022-08-19T17:13:46;17.75;;;15.83;;
33347;SDS011;19707;51.158;17.124;2022-08-19T17:16:57;20.23;;;16.77;;
33347;SDS011;19707;51.158;17.124;2022-08-19T17:20:01;20.45;;;17.60;;
33347;SDS011;19707;51.158;17.124;2022-08-19T17:23:10;20.35;;;18.05;;
33347;SDS011;19707;51.158;17.124;2022-08-19T17:26:21;21.30;;;18.50;;
33347;SDS011;19707;51.158;17.124;2022-08-19T17:29:30;20.02;;;17.92;;
33347;SDS011;19707;51.158;17.124;2022-08-19T17:32:39;19.80;;;16.17;;
33347;SDS011;19707;51.158;17.124;2022-08-19T17:35:48;20.05;;;17.07;;
33347;SDS011;19707;51.158;17.124;2022-08-19T17:38:54;21.75;;;18.37;;
33347;SDS011;19707;51.158;17.124;2022-08-19T17:41:59;21.35;;;17.10;;
33347;SDS011;19707;51.158;17.124;2022-08-19T17:45:05;17.62;;;14.75;;
33347;SDS011;19707;51.158;17.124;2022-08-19T17:48:10;18.05;;;16.25;;
33347;SDS011;19707;51.158;17.124;2022-08-19T17:51:23;24.32;;;18.37;;
33347;SDS011;19707;51.158;17.124;2022-08-19T17:54:41;29.92;;;20.90;;
33347;SDS011;19707;51.158;17.124;2022-08-19T17:57:54;22.87;;;20.30;;
33347;SDS011;19707;51.158;17.124;2022-08-19T18:00:58;21.17;;;18.60;;
33347;SDS011;19707;51.158;17.124;2022-08-19T18:04:08;27.07;;;24.23;;
33347;SDS011;19707;51.158;17.124;2022-08-19T18:10:23;21.33;;;17.40;;
33347;SDS011;19707;51.158;17.124;2022-08-19T18:13:29;22.22;;;19.42;;
33347;SDS011;19707;51.158;17.124;2022-08-19T18:16:31;23.50;;;19.70;;
33347;SDS011;19707;51.158;17.124;2022-08-19T18:19:38;21.05;;;18.87;;
33347;SDS011;19707;51.158;17.124;2022-08-19T18:22:44;27.35;;;24.65;;
33347;SDS011;19707;51.158;17.124;2022-08-19T18:25:51;31.68;;;27.50;;
33347;SDS011;19707;51.158;17.124;2022-08-19T18:28:55;28.42;;;25.37;;
33347;SDS011;19707;51.158;17.124;2022-08-19T18:32:05;26.00;;;23.12;;
33347;SDS011;19707;51.158;17.124;2022-08-19T18:35:18;28.87;;;23.98;;
33347;SDS011;19707;51.158;17.124;2022-08-19T18:38:29;29.90;;;26.82;;
33347;SDS011;19707;51.158;17.124;2022-08-19T18:41:55;32.05;;;25.37;;
33347;SDS011;19707;51.158;17.124;2022-08-19T18:45:20;24.70;;;22.13;;
33347;SDS011;19707;51.158;17.124;2022-08-19T18:48:45;23.70;;;21.15;;